sensor_id;sensor_type;location;lat;lon;timestamp;P1;durP1;ratioP1;P2;durP2;ratioP2
19312;SDS011;9791;50.820;4.406;2023-03-22T00:01:34;9.40;;;5.40;;
19312;SDS011;9791;50.820;4.406;2023-03-22T00:04:00;8.77;;;5.72;;
19312;SDS011;9791;50.820;4.406;2023-03-22T00:06:26;9.88;;;6.20;;
19312;SDS011;9791;50.820;4.406;2023-03-22T00:08:52;9.73;;;5.97;;
19312;SDS011;9791;50.820;4.406;2023-03-22T00:11:19;10.88;;;6.45;;
19312;SDS011;9791;50.820;4.406;2023-03-22T00:13:46;9.90;;;6.53;;
19312;SDS011;9791;50.820;4.406;2023-03-22T00:16:12;10.40;;;6.70;;
19312;SDS011;9791;50.820;4.406;2023-03-22T00:18:39;8.93;;;5.55;;
19312;SDS011;9791;50.820;4.406;2023-03-22T00:21:08;11.52;;;6.38;;
19312;SDS011;9791;50.820;4.406;2023-03-22T00:23:36;9.35;;;6.20;;
19312;SDS011;9791;50.820;4.406;2023-03-22T00:26:02;10.32;;;5.65;;
19312;SDS011;9791;50.820;4.406;2023-03-22T00:28:28;9.85;;;5.65;;
19312;SDS011;9791;50.820;4.406;2023-03-22T00:30:56;12.27;;;7.05;;
19312;SDS011;9791;50.820;4.406;2023-03-22T00:33:22;9.85;;;6.00;;
19312;SDS011;9791;50.820;4.406;2023-03-22T00:35:49;8.40;;;5.93;;
19312;SDS011;9791;50.820;4.406;2023-03-22T00:38:15;12.15;;;6.07;;
19312;SDS011;9791;50.820;4.406;2023-03-22T00:40:41;11.48;;;6.22;;
19312;SDS011;9791;50.820;4.406;2023-03-22T00:43:07;9.50;;;5.88;;
19312;SDS011;9791;50.820;4.406;2023-03-22T00:45:33;10.00;;;6.25;;
19312;SDS011;9791;50.820;4.406;2023-03-22T00:48:05;10.00;;;5.82;;
19312;SDS011;9791;50.820;4.406;2023-03-22T00:50:31;9.77;;;5.47;;
19312;SDS011;9791;50.820;4.406;2023-03-22T00:52:57;7.55;;;4.97;;
19312;SDS011;9791;50.820;4.406;2023-03-22T00:55:23;10.82;;;5.70;;
19312;SDS011;9791;50.820;4.406;2023-03-22T00:57:49;9.27;;;5.35;;
19312;SDS011;9791;50.820;4.406;2023-03-22T01:00:15;10.02;;;5.45;;
19312;SDS011;9791;50.820;4.406;2023-03-22T01:02:42;10.15;;;5.10;;
19312;SDS011;9791;50.820;4.406;2023-03-22T01:05:08;10.57;;;5.70;;
19312;SDS011;9791;50.820;4.406;2023-03-22T01:07:40;11.02;;;5.72;;
19312;SDS011;9791;50.820;4.406;2023-03-22T01:10:06;11.88;;;5.43;;
19312;SDS011;9791;50.820;4.406;2023-03-22T01:12:33;9.63;;;5.20;;
19312;SDS011;9791;50.820;4.406;2023-03-22T01:14:59;12.25;;;5.43;;
19312;SDS011;9791;50.820;4.406;2023-03-22T01:17:25;10.65;;;4.88;;
19312;SDS011;9791;50.820;4.406;2023-03-22T01:19:51;10.43;;;5.35;;
19312;SDS011;9791;50.820;4.406;2023-03-22T01:22:17;9.35;;;4.97;;
19312;SDS011;9791;50.820;4.406;2023-03-22T01:24:43;10.43;;;4.72;;
19312;SDS011;9791;50.820;4.406;2023-03-22T01:27:09;11.27;;;4.90;;
19312;SDS011;9791;50.820;4.406;2023-03-22T01:29:36;12.23;;;4.68;;
19312;SDS011;9791;50.820;4.406;2023-03-22T01:32:02;11.55;;;4.80;;
19312;SDS011;9791;50.820;4.406;2023-03-22T01:34:29;9.30;;;4.47;;
19312;SDS011;9791;50.820;4.406;2023-03-22T01:36:55;6.97;;;4.32;;
19312;SDS011;9791;50.820;4.406;2023-03-22T01:39:21;14.90;;;5.07;;
19312;SDS011;9791;50.820;4.406;2023-03-22T01:41:47;12.45;;;4.75;;
19312;SDS011;9791;50.820;4.406;2023-03-22T01:44:18;11.57;;;5.10;;
19312;SDS011;9791;50.820;4.406;2023-03-22T01:46:45;8.48;;;4.30;;
19312;SDS011;9791;50.820;4.406;2023-03-22T01:49:12;9.35;;;5.00;;
19312;SDS011;9791;50.820;4.406;2023-03-22T01:51:39;8.15;;;4.15;;
19312;SDS011;9791;50.820;4.406;2023-03-22T01:54:11;10.95;;;4.90;;
19312;SDS011;9791;50.820;4.406;2023-03-22T01:56:39;7.72;;;4.43;;
19312;SDS011;9791;50.820;4.406;2023-03-22T01:59:06;9.18;;;4.05;;
19312;SDS011;9791;50.820;4.406;2023-03-22T02:01:33;12.48;;;4.13;;
19312;SDS011;9791;50.820;4.406;2023-03-22T02:06:58;12.90;;;4.13;;
19312;SDS011;9791;50.820;4.406;2023-03-22T02:09:25;10.25;;;4.53;;
19312;SDS011;9791;50.820;4.406;2023-03-22T02:11:59;10.95;;;4.57;;
19312;SDS011;9791;50.820;4.406;2023-03-22T02:17:52;7.50;;;3.75;;
19312;SDS011;9791;50.820;4.406;2023-03-22T02:33:43;7.32;;;4.13;;
19312;SDS011;9791;50.820;4.406;2023-03-22T02:44:05;8.50;;;3.38;;
19312;SDS011;9791;50.820;4.406;2023-03-22T02:46:36;11.70;;;3.65;;
19312;SDS011;9791;50.820;4.406;2023-03-22T02:49:13;6.93;;;3.10;;
19312;SDS011;9791;50.820;4.406;2023-03-22T02:59:09;8.32;;;3.47;;
19312;SDS011;9791;50.820;4.406;2023-03-22T03:01:40;6.97;;;3.67;;
19312;SDS011;9791;50.820;4.406;2023-03-22T03:04:08;8.13;;;3.45;;
19312;SDS011;9791;50.820;4.406;2023-03-22T03:06:37;6.97;;;2.80;;
19312;SDS011;9791;50.820;4.406;2023-03-22T03:09:05;9.77;;;3.30;;
19312;SDS011;9791;50.820;4.406;2023-03-22T03:11:32;6.43;;;2.90;;
19312;SDS011;9791;50.820;4.406;2023-03-22T03:13:58;9.13;;;2.97;;
19312;SDS011;9791;50.820;4.406;2023-03-22T03:16:26;8.57;;;3.42;;
19312;SDS011;9791;50.820;4.406;2023-03-22T03:18:56;9.88;;;3.40;;
19312;SDS011;9791;50.820;4.406;2023-03-22T03:31:36;6.78;;;3.08;;
19312;SDS011;9791;50.820;4.406;2023-03-22T03:34:25;9.95;;;3.85;;
19312;SDS011;9791;50.820;4.406;2023-03-22T03:36:52;8.88;;;2.95;;
19312;SDS011;9791;50.820;4.406;2023-03-22T03:39:20;7.93;;;3.00;;
19312;SDS011;9791;50.820;4.406;2023-03-22T03:41:48;7.72;;;3.08;;
19312;SDS011;9791;50.820;4.406;2023-03-22T03:44:16;6.60;;;2.80;;
19312;SDS011;9791;50.820;4.406;2023-03-22T03:46:42;13.40;;;3.78;;
19312;SDS011;9791;50.820;4.406;2023-03-22T03:49:09;8.65;;;3.25;;
19312;SDS011;9791;50.820;4.406;2023-03-22T03:51:44;7.88;;;2.95;;
19312;SDS011;9791;50.820;4.406;2023-03-22T03:54:10;5.90;;;2.70;;
19312;SDS011;9791;50.820;4.406;2023-03-22T03:56:36;6.82;;;2.85;;
19312;SDS011;9791;50.820;4.406;2023-03-22T03:59:02;10.90;;;3.45;;
19312;SDS011;9791;50.820;4.406;2023-03-22T04:01:29;8.93;;;2.83;;
19312;SDS011;9791;50.820;4.406;2023-03-22T04:03:55;9.50;;;3.38;;
19312;SDS011;9791;50.820;4.406;2023-03-22T04:06:21;7.43;;;2.58;;
19312;SDS011;9791;50.820;4.406;2023-03-22T04:08:47;9.73;;;3.13;;
19312;SDS011;9791;50.820;4.406;2023-03-22T04:11:17;8.77;;;2.92;;
19312;SDS011;9791;50.820;4.406;2023-03-22T04:13:43;9.02;;;2.95;;
19312;SDS011;9791;50.820;4.406;2023-03-22T04:16:09;9.90;;;3.13;;
19312;SDS011;9791;50.820;4.406;2023-03-22T04:18:35;11.05;;;3.53;;
19312;SDS011;9791;50.820;4.406;2023-03-22T04:21:01;7.63;;;3.38;;
19312;SDS011;9791;50.820;4.406;2023-03-22T04:23:29;9.77;;;3.35;;
19312;SDS011;9791;50.820;4.406;2023-03-22T04:25:57;8.10;;;3.15;;
19312;SDS011;9791;50.820;4.406;2023-03-22T04:28:24;9.93;;;3.60;;
19312;SDS011;9791;50.820;4.406;2023-03-22T04:30:50;9.55;;;3.45;;
19312;SDS011;9791;50.820;4.406;2023-03-22T04:33:17;10.25;;;3.65;;
19312;SDS011;9791;50.820;4.406;2023-03-22T04:35:43;13.65;;;4.00;;
19312;SDS011;9791;50.820;4.406;2023-03-22T04:38:10;8.25;;;3.88;;
19312;SDS011;9791;50.820;4.406;2023-03-22T04:40:36;9.73;;;4.00;;
19312;SDS011;9791;50.820;4.406;2023-03-22T04:43:03;7.75;;;3.97;;
19312;SDS011;9791;50.820;4.406;2023-03-22T04:45:30;7.80;;;3.75;;
19312;SDS011;9791;50.820;4.406;2023-03-22T04:47:56;11.32;;;3.88;;
19312;SDS011;9791;50.820;4.406;2023-03-22T04:50:22;10.20;;;3.83;;
19312;SDS011;9791;50.820;4.406;2023-03-22T04:52:49;9.93;;;4.10;;
19312;SDS011;9791;50.820;4.406;2023-03-22T04:55:15;11.60;;;3.80;;
19312;SDS011;9791;50.820;4.406;2023-03-22T04:57:41;12.55;;;3.90;;
19312;SDS011;9791;50.820;4.406;2023-03-22T05:00:07;11.57;;;3.63;;
19312;SDS011;9791;50.820;4.406;2023-03-22T05:02:34;8.75;;;4.20;;
19312;SDS011;9791;50.820;4.406;2023-03-22T05:05:03;10.10;;;3.97;;
19312;SDS011;9791;50.820;4.406;2023-03-22T05:07:29;9.43;;;3.58;;
19312;SDS011;9791;50.820;4.406;2023-03-22T05:09:55;11.05;;;4.00;;
19312;SDS011;9791;50.820;4.406;2023-03-22T05:12:21;9.75;;;3.45;;
19312;SDS011;9791;50.820;4.406;2023-03-22T05:14:47;11.35;;;3.72;;
19312;SDS011;9791;50.820;4.406;2023-03-22T05:17:13;9.23;;;3.60;;
19312;SDS011;9791;50.820;4.406;2023-03-22T05:19:39;10.07;;;3.58;;
19312;SDS011;9791;50.820;4.406;2023-03-22T05:22:05;9.60;;;3.70;;
19312;SDS011;9791;50.820;4.406;2023-03-22T05:24:31;8.77;;;3.42;;
19312;SDS011;9791;50.820;4.406;2023-03-22T05:26:57;8.48;;;3.53;;
19312;SDS011;9791;50.820;4.406;2023-03-22T05:29:25;8.55;;;3.05;;
19312;SDS011;9791;50.820;4.406;2023-03-22T05:31:51;10.07;;;3.30;;
19312;SDS011;9791;50.820;4.406;2023-03-22T05:34:17;8.38;;;3.17;;
19312;SDS011;9791;50.820;4.406;2023-03-22T05:36:44;11.98;;;3.40;;
19312;SDS011;9791;50.820;4.406;2023-03-22T05:39:10;8.63;;;3.22;;
19312;SDS011;9791;50.820;4.406;2023-03-22T05:41:39;10.98;;;3.45;;
19312;SDS011;9791;50.820;4.406;2023-03-22T05:44:05;8.70;;;3.05;;
19312;SDS011;9791;50.820;4.406;2023-03-22T05:46:32;11.18;;;3.60;;
19312;SDS011;9791;50.820;4.406;2023-03-22T05:48:58;7.88;;;2.85;;
19312;SDS011;9791;50.820;4.406;2023-03-22T05:51:24;7.75;;;2.90;;
19312;SDS011;9791;50.820;4.406;2023-03-22T05:53:51;16.27;;;3.28;;
19312;SDS011;9791;50.820;4.406;2023-03-22T05:56:18;10.88;;;2.70;;
19312;SDS011;9791;50.820;4.406;2023-03-22T05:58:49;9.93;;;2.65;;
19312;SDS011;9791;50.820;4.406;2023-03-22T06:01:16;9.60;;;2.95;;
19312;SDS011;9791;50.820;4.406;2023-03-22T06:03:44;7.03;;;2.55;;
19312;SDS011;9791;50.820;4.406;2023-03-22T06:06:10;8.02;;;3.00;;
19312;SDS011;9791;50.820;4.406;2023-03-22T06:08:36;11.90;;;3.45;;
19312;SDS011;9791;50.820;4.406;2023-03-22T06:11:03;7.90;;;2.20;;
19312;SDS011;9791;50.820;4.406;2023-03-22T06:13:29;12.43;;;2.40;;
19312;SDS011;9791;50.820;4.406;2023-03-22T06:15:58;10.40;;;2.15;;
19312;SDS011;9791;50.820;4.406;2023-03-22T06:18:24;8.95;;;2.63;;
19312;SDS011;9791;50.820;4.406;2023-03-22T06:20:50;10.82;;;2.33;;
19312;SDS011;9791;50.820;4.406;2023-03-22T06:23:16;9.48;;;2.92;;
19312;SDS011;9791;50.820;4.406;2023-03-22T06:25:42;12.57;;;2.85;;
19312;SDS011;9791;50.820;4.406;2023-03-22T06:28:08;9.38;;;2.65;;
19312;SDS011;9791;50.820;4.406;2023-03-22T06:30:34;11.32;;;2.90;;
19312;SDS011;9791;50.820;4.406;2023-03-22T06:33:00;13.25;;;2.95;;
19312;SDS011;9791;50.820;4.406;2023-03-22T06:35:29;10.75;;;2.90;;
19312;SDS011;9791;50.820;4.406;2023-03-22T06:37:55;9.15;;;3.47;;
19312;SDS011;9791;50.820;4.406;2023-03-22T06:40:21;11.85;;;2.33;;
19312;SDS011;9791;50.820;4.406;2023-03-22T06:42:47;9.88;;;2.80;;
19312;SDS011;9791;50.820;4.406;2023-03-22T06:45:13;10.70;;;2.70;;
19312;SDS011;9791;50.820;4.406;2023-03-22T06:47:41;6.47;;;2.33;;
19312;SDS011;9791;50.820;4.406;2023-03-22T06:50:07;10.80;;;2.63;;
19312;SDS011;9791;50.820;4.406;2023-03-22T06:52:33;7.60;;;2.40;;
19312;SDS011;9791;50.820;4.406;2023-03-22T06:55:00;6.95;;;2.70;;
19312;SDS011;9791;50.820;4.406;2023-03-22T06:57:26;9.27;;;2.45;;
19312;SDS011;9791;50.820;4.406;2023-03-22T06:59:52;9.45;;;2.33;;
19312;SDS011;9791;50.820;4.406;2023-03-22T07:02:18;9.40;;;2.38;;
19312;SDS011;9791;50.820;4.406;2023-03-22T07:04:44;8.65;;;2.67;;
19312;SDS011;9791;50.820;4.406;2023-03-22T07:07:11;9.07;;;2.58;;
19312;SDS011;9791;50.820;4.406;2023-03-22T07:09:40;8.40;;;2.60;;
19312;SDS011;9791;50.820;4.406;2023-03-22T07:12:06;8.05;;;2.45;;
19312;SDS011;9791;50.820;4.406;2023-03-22T07:14:32;7.93;;;2.33;;
19312;SDS011;9791;50.820;4.406;2023-03-22T07:16:58;9.00;;;2.58;;
19312;SDS011;9791;50.820;4.406;2023-03-22T07:19:24;5.95;;;1.85;;
19312;SDS011;9791;50.820;4.406;2023-03-22T07:21:51;5.90;;;1.92;;
19312;SDS011;9791;50.820;4.406;2023-03-22T07:24:17;7.00;;;2.03;;
19312;SDS011;9791;50.820;4.406;2023-03-22T07:26:43;8.27;;;2.38;;
19312;SDS011;9791;50.820;4.406;2023-03-22T07:29:10;12.40;;;2.33;;
19312;SDS011;9791;50.820;4.406;2023-03-22T07:31:36;9.45;;;2.47;;
19312;SDS011;9791;50.820;4.406;2023-03-22T07:34:03;8.43;;;1.92;;
19312;SDS011;9791;50.820;4.406;2023-03-22T07:36:30;5.13;;;1.83;;
19312;SDS011;9791;50.820;4.406;2023-03-22T07:38:56;10.27;;;2.55;;
19312;SDS011;9791;50.820;4.406;2023-03-22T07:41:22;9.52;;;2.28;;
19312;SDS011;9791;50.820;4.406;2023-03-22T07:43:49;6.97;;;2.17;;
19312;SDS011;9791;50.820;4.406;2023-03-22T07:46:15;8.13;;;2.00;;
19312;SDS011;9791;50.820;4.406;2023-03-22T07:48:41;6.15;;;2.00;;
19312;SDS011;9791;50.820;4.406;2023-03-22T07:51:07;10.77;;;2.13;;
19312;SDS011;9791;50.820;4.406;2023-03-22T07:53:33;10.52;;;3.35;;
19312;SDS011;9791;50.820;4.406;2023-03-22T07:56:01;5.32;;;1.98;;
19312;SDS011;9791;50.820;4.406;2023-03-22T07:58:27;8.57;;;2.35;;
19312;SDS011;9791;50.820;4.406;2023-03-22T08:00:53;9.88;;;2.17;;
19312;SDS011;9791;50.820;4.406;2023-03-22T08:03:19;10.05;;;2.63;;
19312;SDS011;9791;50.820;4.406;2023-03-22T08:05:46;6.93;;;2.17;;
19312;SDS011;9791;50.820;4.406;2023-03-22T08:08:12;7.95;;;2.20;;
19312;SDS011;9791;50.820;4.406;2023-03-22T08:10:38;9.68;;;2.47;;
19312;SDS011;9791;50.820;4.406;2023-03-22T08:13:05;6.50;;;2.00;;
19312;SDS011;9791;50.820;4.406;2023-03-22T08:15:31;8.82;;;2.47;;
19312;SDS011;9791;50.820;4.406;2023-03-22T08:17:57;8.32;;;2.28;;
19312;SDS011;9791;50.820;4.406;2023-03-22T08:20:24;9.60;;;2.20;;
19312;SDS011;9791;50.820;4.406;2023-03-22T08:22:51;10.18;;;2.28;;
19312;SDS011;9791;50.820;4.406;2023-03-22T08:25:18;7.72;;;2.10;;
19312;SDS011;9791;50.820;4.406;2023-03-22T08:27:44;9.27;;;2.15;;
19312;SDS011;9791;50.820;4.406;2023-03-22T08:30:10;9.93;;;2.17;;
19312;SDS011;9791;50.820;4.406;2023-03-22T08:32:37;7.07;;;2.30;;
19312;SDS011;9791;50.820;4.406;2023-03-22T08:35:04;7.80;;;2.15;;
19312;SDS011;9791;50.820;4.406;2023-03-22T08:37:31;7.65;;;2.35;;
19312;SDS011;9791;50.820;4.406;2023-03-22T08:39:57;10.85;;;2.72;;
19312;SDS011;9791;50.820;4.406;2023-03-22T08:42:23;8.80;;;2.05;;
19312;SDS011;9791;50.820;4.406;2023-03-22T08:44:49;8.07;;;1.90;;
19312;SDS011;9791;50.820;4.406;2023-03-22T08:47:16;10.70;;;2.25;;
19312;SDS011;9791;50.820;4.406;2023-03-22T08:49:42;8.55;;;2.22;;
19312;SDS011;9791;50.820;4.406;2023-03-22T08:52:08;6.60;;;1.95;;
19312;SDS011;9791;50.820;4.406;2023-03-22T08:54:35;10.80;;;2.75;;
19312;SDS011;9791;50.820;4.406;2023-03-22T08:57:02;7.85;;;2.35;;
19312;SDS011;9791;50.820;4.406;2023-03-22T08:59:28;9.98;;;2.30;;
19312;SDS011;9791;50.820;4.406;2023-03-22T09:01:54;8.10;;;2.38;;
19312;SDS011;9791;50.820;4.406;2023-03-22T09:04:20;9.38;;;2.25;;
19312;SDS011;9791;50.820;4.406;2023-03-22T09:06:46;6.38;;;2.00;;
19312;SDS011;9791;50.820;4.406;2023-03-22T09:09:13;8.20;;;2.30;;
19312;SDS011;9791;50.820;4.406;2023-03-22T09:11:39;9.50;;;1.88;;
19312;SDS011;9791;50.820;4.406;2023-03-22T09:14:06;10.35;;;2.75;;
19312;SDS011;9791;50.820;4.406;2023-03-22T09:16:32;6.43;;;2.17;;
19312;SDS011;9791;50.820;4.406;2023-03-22T09:18:59;9.90;;;2.60;;
19312;SDS011;9791;50.820;4.406;2023-03-22T09:21:26;10.30;;;2.33;;
19312;SDS011;9791;50.820;4.406;2023-03-22T09:23:54;9.35;;;2.17;;
19312;SDS011;9791;50.820;4.406;2023-03-22T09:26:20;7.47;;;2.35;;
19312;SDS011;9791;50.820;4.406;2023-03-22T09:28:47;9.05;;;2.17;;
19312;SDS011;9791;50.820;4.406;2023-03-22T09:31:14;11.88;;;2.75;;
19312;SDS011;9791;50.820;4.406;2023-03-22T09:33:40;7.82;;;2.38;;
19312;SDS011;9791;50.820;4.406;2023-03-22T09:36:07;6.25;;;2.28;;
19312;SDS011;9791;50.820;4.406;2023-03-22T09:38:33;9.35;;;2.80;;
19312;SDS011;9791;50.820;4.406;2023-03-22T09:41:04;9.30;;;2.58;;
19312;SDS011;9791;50.820;4.406;2023-03-22T09:43:33;6.93;;;2.00;;
19312;SDS011;9791;50.820;4.406;2023-03-22T09:45:59;6.68;;;2.13;;
19312;SDS011;9791;50.820;4.406;2023-03-22T09:48:28;7.63;;;2.10;;
19312;SDS011;9791;50.820;4.406;2023-03-22T09:50:55;6.40;;;1.77;;
19312;SDS011;9791;50.820;4.406;2023-03-22T09:53:22;9.05;;;2.28;;
19312;SDS011;9791;50.820;4.406;2023-03-22T10:03:23;6.03;;;2.10;;
19312;SDS011;9791;50.820;4.406;2023-03-22T10:06:02;5.97;;;1.90;;
19312;SDS011;9791;50.820;4.406;2023-03-22T10:08:32;5.70;;;1.90;;
19312;SDS011;9791;50.820;4.406;2023-03-22T10:11:01;9.82;;;2.75;;
19312;SDS011;9791;50.820;4.406;2023-03-22T10:13:34;7.63;;;2.45;;
19312;SDS011;9791;50.820;4.406;2023-03-22T10:16:02;8.57;;;2.00;;
19312;SDS011;9791;50.820;4.406;2023-03-22T10:18:31;5.93;;;2.00;;
19312;SDS011;9791;50.820;4.406;2023-03-22T10:21:02;8.35;;;2.35;;
19312;SDS011;9791;50.820;4.406;2023-03-22T10:25:55;5.03;;;1.77;;
19312;SDS011;9791;50.820;4.406;2023-03-22T10:28:38;12.25;;;2.40;;
19312;SDS011;9791;50.820;4.406;2023-03-22T10:31:05;8.73;;;1.90;;
19312;SDS011;9791;50.820;4.406;2023-03-22T10:36:00;4.93;;;1.75;;
19312;SDS011;9791;50.820;4.406;2023-03-22T10:38:27;6.65;;;2.10;;
19312;SDS011;9791;50.820;4.406;2023-03-22T10:40:56;9.68;;;2.92;;
19312;SDS011;9791;50.820;4.406;2023-03-22T10:43:27;6.88;;;2.10;;
19312;SDS011;9791;50.820;4.406;2023-03-22T10:45:55;8.82;;;2.05;;
19312;SDS011;9791;50.820;4.406;2023-03-22T10:48:36;8.70;;;2.30;;
19312;SDS011;9791;50.820;4.406;2023-03-22T10:51:03;9.18;;;2.45;;
19312;SDS011;9791;50.820;4.406;2023-03-22T10:55:57;10.55;;;2.17;;
19312;SDS011;9791;50.820;4.406;2023-03-22T10:58:32;9.00;;;2.35;;
19312;SDS011;9791;50.820;4.406;2023-03-22T11:01:09;7.35;;;2.10;;
19312;SDS011;9791;50.820;4.406;2023-03-22T11:03:38;9.50;;;2.47;;
19312;SDS011;9791;50.820;4.406;2023-03-22T11:08:39;9.32;;;2.20;;
19312;SDS011;9791;50.820;4.406;2023-03-22T11:11:06;8.57;;;2.20;;
19312;SDS011;9791;50.820;4.406;2023-03-22T11:13:32;7.75;;;2.42;;
19312;SDS011;9791;50.820;4.406;2023-03-22T11:16:00;6.40;;;2.20;;
19312;SDS011;9791;50.820;4.406;2023-03-22T11:18:31;8.68;;;2.42;;
19312;SDS011;9791;50.820;4.406;2023-03-22T11:20:59;7.65;;;2.10;;
19312;SDS011;9791;50.820;4.406;2023-03-22T11:23:26;7.47;;;2.38;;
19312;SDS011;9791;50.820;4.406;2023-03-22T11:25:54;6.25;;;2.30;;
19312;SDS011;9791;50.820;4.406;2023-03-22T11:28:21;8.80;;;2.00;;
19312;SDS011;9791;50.820;4.406;2023-03-22T11:31:01;6.57;;;2.03;;
19312;SDS011;9791;50.820;4.406;2023-03-22T11:33:27;10.70;;;2.45;;
19312;SDS011;9791;50.820;4.406;2023-03-22T11:35:54;5.47;;;1.88;;
19312;SDS011;9791;50.820;4.406;2023-03-22T11:38:29;10.18;;;2.80;;
19312;SDS011;9791;50.820;4.406;2023-03-22T11:41:01;9.75;;;2.03;;
19312;SDS011;9791;50.820;4.406;2023-03-22T11:43:33;6.53;;;2.28;;
19312;SDS011;9791;50.820;4.406;2023-03-22T11:46:00;10.60;;;2.70;;
19312;SDS011;9791;50.820;4.406;2023-03-22T11:48:27;9.95;;;2.22;;
19312;SDS011;9791;50.820;4.406;2023-03-22T11:50:54;9.60;;;2.70;;
19312;SDS011;9791;50.820;4.406;2023-03-22T11:53:24;7.18;;;2.25;;
19312;SDS011;9791;50.820;4.406;2023-03-22T11:55:52;6.85;;;2.70;;
19312;SDS011;9791;50.820;4.406;2023-03-22T11:58:26;10.75;;;2.40;;
19312;SDS011;9791;50.820;4.406;2023-03-22T12:00:57;6.80;;;2.53;;
19312;SDS011;9791;50.820;4.406;2023-03-22T12:03:31;7.18;;;2.45;;
19312;SDS011;9791;50.820;4.406;2023-03-22T12:06:00;8.48;;;2.58;;
19312;SDS011;9791;50.820;4.406;2023-03-22T12:11:07;6.53;;;2.38;;
19312;SDS011;9791;50.820;4.406;2023-03-22T12:13:50;12.18;;;2.92;;
19312;SDS011;9791;50.820;4.406;2023-03-22T12:16:20;8.00;;;2.90;;
19312;SDS011;9791;50.820;4.406;2023-03-22T12:18:50;6.70;;;2.22;;
19312;SDS011;9791;50.820;4.406;2023-03-22T12:21:21;7.07;;;2.35;;
19312;SDS011;9791;50.820;4.406;2023-03-22T12:23:47;7.70;;;2.60;;
19312;SDS011;9791;50.820;4.406;2023-03-22T12:26:16;8.90;;;2.50;;
19312;SDS011;9791;50.820;4.406;2023-03-22T12:31:25;8.45;;;2.83;;
19312;SDS011;9791;50.820;4.406;2023-03-22T12:33:53;6.75;;;2.42;;
19312;SDS011;9791;50.820;4.406;2023-03-22T12:36:20;5.90;;;2.33;;
19312;SDS011;9791;50.820;4.406;2023-03-22T12:38:48;10.82;;;2.97;;
19312;SDS011;9791;50.820;4.406;2023-03-22T12:43:54;5.43;;;2.35;;
19312;SDS011;9791;50.820;4.406;2023-03-22T12:46:24;7.40;;;3.47;;
19312;SDS011;9791;50.820;4.406;2023-03-22T12:51:40;5.68;;;2.15;;
19312;SDS011;9791;50.820;4.406;2023-03-22T12:54:08;8.45;;;3.03;;
19312;SDS011;9791;50.820;4.406;2023-03-22T12:56:43;10.15;;;2.70;;
19312;SDS011;9791;50.820;4.406;2023-03-22T12:59:17;10.95;;;3.42;;
19312;SDS011;9791;50.820;4.406;2023-03-22T13:01:47;6.85;;;2.72;;
19312;SDS011;9791;50.820;4.406;2023-03-22T13:07:08;7.40;;;2.90;;
19312;SDS011;9791;50.820;4.406;2023-03-22T13:27:56;9.05;;;3.00;;
19312;SDS011;9791;50.820;4.406;2023-03-22T13:33:14;6.85;;;2.80;;
19312;SDS011;9791;50.820;4.406;2023-03-22T13:38:43;8.77;;;2.60;;
19312;SDS011;9791;50.820;4.406;2023-03-22T13:41:27;6.43;;;2.45;;
19312;SDS011;9791;50.820;4.406;2023-03-22T13:43:55;8.75;;;2.95;;
19312;SDS011;9791;50.820;4.406;2023-03-22T13:59:11;7.38;;;2.65;;
19312;SDS011;9791;50.820;4.406;2023-03-22T14:04:12;10.13;;;3.05;;
19312;SDS011;9791;50.820;4.406;2023-03-22T14:06:46;6.53;;;3.00;;
19312;SDS011;9791;50.820;4.406;2023-03-22T14:09:25;12.07;;;3.22;;
19312;SDS011;9791;50.820;4.406;2023-03-22T14:11:55;10.43;;;3.33;;
19312;SDS011;9791;50.820;4.406;2023-03-22T14:14:30;11.07;;;3.83;;
19312;SDS011;9791;50.820;4.406;2023-03-22T14:17:04;6.93;;;3.60;;
19312;SDS011;9791;50.820;4.406;2023-03-22T14:19:35;9.93;;;3.60;;
19312;SDS011;9791;50.820;4.406;2023-03-22T14:22:04;6.93;;;3.35;;
19312;SDS011;9791;50.820;4.406;2023-03-22T14:24:32;11.13;;;3.75;;
19312;SDS011;9791;50.820;4.406;2023-03-22T14:27:00;8.00;;;3.03;;
19312;SDS011;9791;50.820;4.406;2023-03-22T14:29:38;9.93;;;3.13;;
19312;SDS011;9791;50.820;4.406;2023-03-22T14:32:05;7.32;;;3.45;;
19312;SDS011;9791;50.820;4.406;2023-03-22T14:34:32;10.30;;;3.40;;
19312;SDS011;9791;50.820;4.406;2023-03-22T14:37:01;10.85;;;3.65;;
19312;SDS011;9791;50.820;4.406;2023-03-22T14:39:30;11.25;;;3.95;;
19312;SDS011;9791;50.820;4.406;2023-03-22T14:41:58;9.82;;;3.25;;
19312;SDS011;9791;50.820;4.406;2023-03-22T14:44:25;9.60;;;3.42;;
19312;SDS011;9791;50.820;4.406;2023-03-22T14:46:59;8.57;;;3.75;;
19312;SDS011;9791;50.820;4.406;2023-03-22T14:49:26;11.40;;;3.70;;
19312;SDS011;9791;50.820;4.406;2023-03-22T14:51:52;7.75;;;3.35;;
19312;SDS011;9791;50.820;4.406;2023-03-22T14:54:19;7.45;;;3.53;;
19312;SDS011;9791;50.820;4.406;2023-03-22T14:56:50;8.70;;;3.53;;
19312;SDS011;9791;50.820;4.406;2023-03-22T14:59:17;8.60;;;3.55;;
19312;SDS011;9791;50.820;4.406;2023-03-22T15:01:48;6.65;;;3.50;;
19312;SDS011;9791;50.820;4.406;2023-03-22T15:04:15;8.35;;;3.75;;
19312;SDS011;9791;50.820;4.406;2023-03-22T15:06:42;9.38;;;3.88;;
19312;SDS011;9791;50.820;4.406;2023-03-22T15:09:10;9.43;;;3.92;;
19312;SDS011;9791;50.820;4.406;2023-03-22T15:11:36;8.15;;;3.90;;
19312;SDS011;9791;50.820;4.406;2023-03-22T15:14:04;7.70;;;4.05;;
19312;SDS011;9791;50.820;4.406;2023-03-22T15:16:31;8.98;;;4.28;;
19312;SDS011;9791;50.820;4.406;2023-03-22T15:18:58;7.13;;;4.07;;
19312;SDS011;9791;50.820;4.406;2023-03-22T15:21:24;12.45;;;3.75;;
19312;SDS011;9791;50.820;4.406;2023-03-22T15:23:52;8.77;;;3.85;;
19312;SDS011;9791;50.820;4.406;2023-03-22T15:31:20;8.60;;;4.10;;
19312;SDS011;9791;50.820;4.406;2023-03-22T15:33:47;8.07;;;4.18;;
19312;SDS011;9791;50.820;4.406;2023-03-22T15:36:15;10.63;;;4.50;;
19312;SDS011;9791;50.820;4.406;2023-03-22T15:38:43;10.38;;;3.85;;
19312;SDS011;9791;50.820;4.406;2023-03-22T15:43:45;10.32;;;4.78;;
19312;SDS011;9791;50.820;4.406;2023-03-22T15:46:19;9.68;;;4.95;;
19312;SDS011;9791;50.820;4.406;2023-03-22T15:51:15;8.88;;;4.65;;
19312;SDS011;9791;50.820;4.406;2023-03-22T15:53:43;8.65;;;4.65;;
19312;SDS011;9791;50.820;4.406;2023-03-22T15:56:23;10.88;;;5.13;;
19312;SDS011;9791;50.820;4.406;2023-03-22T15:58:51;8.77;;;5.03;;
19312;SDS011;9791;50.820;4.406;2023-03-22T16:01:18;9.05;;;4.65;;
19312;SDS011;9791;50.820;4.406;2023-03-22T16:03:49;9.50;;;4.60;;
19312;SDS011;9791;50.820;4.406;2023-03-22T16:06:16;16.30;;;4.50;;
19312;SDS011;9791;50.820;4.406;2023-03-22T16:08:42;10.68;;;4.38;;
19312;SDS011;9791;50.820;4.406;2023-03-22T16:11:12;10.18;;;4.22;;
19312;SDS011;9791;50.820;4.406;2023-03-22T16:13:38;12.00;;;5.38;;
19312;SDS011;9791;50.820;4.406;2023-03-22T16:16:05;10.02;;;4.53;;
19312;SDS011;9791;50.820;4.406;2023-03-22T16:18:31;9.77;;;4.40;;
19312;SDS011;9791;50.820;4.406;2023-03-22T16:20:58;12.40;;;4.80;;
19312;SDS011;9791;50.820;4.406;2023-03-22T16:23:24;7.50;;;3.90;;
19312;SDS011;9791;50.820;4.406;2023-03-22T16:25:50;7.82;;;4.13;;
19312;SDS011;9791;50.820;4.406;2023-03-22T16:28:18;11.00;;;4.47;;
19312;SDS011;9791;50.820;4.406;2023-03-22T16:30:45;11.07;;;4.75;;
19312;SDS011;9791;50.820;4.406;2023-03-22T16:33:12;13.70;;;4.93;;
19312;SDS011;9791;50.820;4.406;2023-03-22T16:35:38;8.57;;;4.35;;
19312;SDS011;9791;50.820;4.406;2023-03-22T16:38:04;11.13;;;4.55;;
19312;SDS011;9791;50.820;4.406;2023-03-22T16:40:30;14.60;;;4.97;;
19312;SDS011;9791;50.820;4.406;2023-03-22T16:42:57;9.70;;;4.13;;
19312;SDS011;9791;50.820;4.406;2023-03-22T16:45:24;8.93;;;4.43;;
19312;SDS011;9791;50.820;4.406;2023-03-22T16:47:51;12.23;;;4.72;;
19312;SDS011;9791;50.820;4.406;2023-03-22T16:50:17;12.57;;;4.35;;
19312;SDS011;9791;50.820;4.406;2023-03-22T16:52:44;10.27;;;4.53;;
19312;SDS011;9791;50.820;4.406;2023-03-22T16:55:15;8.07;;;4.30;;
19312;SDS011;9791;50.820;4.406;2023-03-22T16:57:42;9.70;;;4.32;;
19312;SDS011;9791;50.820;4.406;2023-03-22T17:00:09;13.98;;;4.97;;
19312;SDS011;9791;50.820;4.406;2023-03-22T17:02:36;9.98;;;4.57;;
19312;SDS011;9791;50.820;4.406;2023-03-22T17:05:02;10.90;;;4.05;;
19312;SDS011;9791;50.820;4.406;2023-03-22T17:07:30;9.27;;;3.97;;